Orbital elements of FENGYUN 1C DEB
| Launched | 9 May 1999 |
| Flight ended | – |
| Launch site | Taiyuan Space Center, PRC |
| Owner | People's Republic of China |
| NORAD ID | 30314 |
| Date fetched |
Epoch osculation |
Inc. [°] |
Ecc. | RA asc node [hr] |
Arg Peri. [°] |
Mean anom [°] |
Mean motion [rev/day] |
Abs. mag |
| Date fetched |
Epoch osculation |
Inc. [°] |
Ecc. | RA asc node [hr] |
Arg Peri. [°] |
Mean anom [°] |
Mean motion [rev/day] |
Abs. mag |
| 2026 May 09 17:57 | 2026 May 04 23:15:11 | 98.3922 | 0.01406 | 20.6280 | 313.8063 | 45.1541 | 14.01791 | – |
| 2026 May 08 17:57 | 2026 May 04 23:15:11 | 98.3922 | 0.01406 | 20.6280 | 313.8063 | 45.1541 | 14.01791 | – |
| 2026 May 07 17:58 | 2026 May 04 23:15:11 | 98.3922 | 0.01406 | 20.6280 | 313.8063 | 45.1541 | 14.01791 | – |
| 2026 May 06 17:57 | 2026 May 04 23:15:11 | 98.3922 | 0.01406 | 20.6280 | 313.8063 | 45.1541 | 14.01791 | – |
| 2026 May 05 17:57 | 2026 May 04 23:15:11 | 98.3922 | 0.01406 | 20.6280 | 313.8063 | 45.1541 | 14.01791 | – |
| 2026 May 04 17:57 | 2026 Apr 29 23:20:25 | 98.3933 | 0.01411 | 20.3214 | 328.0360 | 45.1541 | 14.01791 | – |
| 2026 May 03 17:57 | 2026 Apr 29 23:20:25 | 98.3933 | 0.01411 | 20.3214 | 328.0360 | 45.1541 | 14.01791 | – |
| 2026 May 02 17:57 | 2026 Apr 29 23:20:25 | 98.3933 | 0.01411 | 20.3214 | 328.0360 | 45.1541 | 14.01791 | – |
| 2026 May 01 17:56 | 2026 Apr 29 23:20:25 | 98.3933 | 0.01411 | 20.3214 | 328.0360 | 45.1541 | 14.01791 | – |
| 2026 Apr 30 17:56 | 2026 Apr 29 23:20:25 | 98.3933 | 0.01411 | 20.3214 | 328.0360 | 45.1541 | 14.01791 | – |
| 2026 Apr 29 17:57 | 2026 Apr 21 18:20:20 | 98.3926 | 0.01416 | 19.8173 | 351.2606 | 45.1541 | 14.01791 | – |
| 2026 Apr 28 17:56 | 2026 Apr 21 18:20:20 | 98.3926 | 0.01416 | 19.8173 | 351.2606 | 45.1541 | 14.01791 | – |
| 2026 Apr 27 17:58 | 2026 Apr 21 18:20:20 | 98.3926 | 0.01416 | 19.8173 | 351.2606 | 45.1541 | 14.01791 | – |
| 2026 Apr 26 17:58 | 2026 Apr 21 18:20:20 | 98.3926 | 0.01416 | 19.8173 | 351.2606 | 45.1541 | 14.01791 | – |
| 2026 Apr 25 17:58 | 2026 Apr 21 18:20:20 | 98.3926 | 0.01416 | 19.8173 | 351.2606 | 45.1541 | 14.01791 | – |
| 2026 Apr 24 17:59 | 2026 Apr 21 18:20:20 | 98.3926 | 0.01416 | 19.8173 | 351.2606 | 45.1541 | 14.01791 | – |
| 2026 Apr 23 17:57 | 2026 Apr 19 11:31:14 | 98.3934 | 0.01418 | 19.6772 | 357.7294 | 45.1541 | 14.01791 | – |
| 2026 Apr 22 17:57 | 2026 Apr 19 11:31:14 | 98.3934 | 0.01418 | 19.6772 | 357.7294 | 45.1541 | 14.01791 | – |
| 2026 Apr 21 17:57 | 2026 Apr 19 11:31:14 | 98.3934 | 0.01418 | 19.6772 | 357.7294 | 45.1541 | 14.01791 | – |
| 2026 Apr 20 17:57 | 2026 Apr 19 11:31:14 | 98.3934 | 0.01418 | 19.6772 | 357.7294 | 45.1541 | 14.01791 | – |
| 2026 Apr 19 17:58 | 2026 Apr 19 11:31:14 | 98.3934 | 0.01418 | 19.6772 | 357.7294 | 45.1541 | 14.01791 | – |
| 2026 Apr 18 17:56 | 2026 Apr 12 23:37:49 | 98.3946 | 0.01422 | 19.2784 | 15.9759 | 45.1541 | 14.01791 | – |
| 2026 Apr 16 17:57 | 2026 Apr 12 23:37:49 | 98.3946 | 0.01422 | 19.2784 | 15.9759 | 45.1541 | 14.01791 | – |
| 2026 Apr 14 17:57 | 2026 Apr 12 23:37:49 | 98.3946 | 0.01422 | 19.2784 | 15.9759 | 45.1541 | 14.01791 | – |
| 2026 Apr 13 17:57 | 2026 Apr 12 23:37:49 | 98.3946 | 0.01422 | 19.2784 | 15.9759 | 45.1541 | 14.01791 | – |
| 2026 Apr 12 17:57 | 2026 Apr 08 06:33:58 | 98.3927 | 0.01424 | 18.9891 | 29.1695 | 45.1541 | 14.01791 | – |